Time;durP1;ratioP1;P1;durP2;ratioP2;P2;SDS_P1;SDS_P2;PMS_P1;PMS_P2;Temp;Humidity;BMP_temperature;BMP_pressure;BME280_temperature;BME280_humidity;BME280_pressure;Samples;Min_cycle;Max_cycle;Signal;HPM_P1;HPM_P2
2023/10/28 00:01:45;;;;;;;5.43;2.90;;;12.50;99.90;;;;;;6195959;23;20406;-86
2023/10/28 00:05:07;;;;;;;7.17;2.80;;;12.60;99.90;;;;;;6175098;23;20397;-87
2023/10/28 00:08:36;;;;;;;5.93;2.87;;;12.80;99.90;;;;;;6141371;23;20450;-87
2023/10/28 00:11:40;;;;;;;4.40;2.37;;;12.80;99.90;;;;;;6175685;23;20405;-86
2023/10/28 00:18:33;;;;;;;4.40;2.60;;;12.60;99.90;;;;;;6157221;23;20492;-86
2023/10/28 00:21:38;;;;;;;4.80;2.70;;;12.60;99.90;;;;;;6192487;23;20441;-87
2023/10/28 00:28:39;;;;;;;8.60;3.27;;;12.90;99.90;;;;;;6158739;23;20477;-87
2023/10/28 00:31:31;;;;;;;;;;;;;;;;;;;;;
2023/10/28 00:34:39;;;;;;;4.53;2.40;;;12.90;99.90;;;;;;6113534;23;20502;-88
2023/10/28 00:37:46;;;;;;;3.67;2.53;;;12.90;99.90;;;;;;6094233;23;20424;-87
2023/10/28 00:41:08;;;;;;;4.63;2.70;;;13.00;99.90;;;;;;6087634;23;20428;-87
2023/10/28 00:44:26;;;;;;;7.23;2.50;;;13.00;99.90;;;;;;6082068;23;20405;-87
2023/10/28 00:49:07;;;;;;;3.43;2.43;;;13.10;99.90;;;;;;5177683;27;20498;-87
2023/10/28 00:52:43;;;;;;;2.50;2.03;;;12.90;99.90;;;;;;5121408;27;20452;-87
2023/10/28 00:55:49;;;;;;;4.20;2.63;;;13.00;99.90;;;;;;5130061;27;20456;-88
2023/10/28 00:59:19;;;;;;;;;;;;;;;;;;;;;
2023/10/28 01:07:37;;;;;;;2.53;2.33;;;13.00;99.90;;;;;;5082300;28;20483;-88
2023/10/28 01:14:13;;;;;;;8.00;3.37;;;12.90;99.90;;;;;;5025581;28;20493;-87
2023/10/28 01:17:25;;;;;;;2.87;2.43;;;12.90;99.90;;;;;;5020133;28;20966;-88
2023/10/28 01:24:06;;;;;;;3.87;2.33;;;12.90;99.90;;;;;;4903207;28;21054;-86
2023/10/28 01:27:57;;;;;;;6.27;2.87;;;12.90;99.90;;;;;;4948719;28;20543;-89
2023/10/28 01:31:09;;;;;;;5.53;3.20;;;12.80;99.90;;;;;;4930323;28;20628;-87
2023/10/28 01:34:17;;;;;;;2.70;2.10;;;12.70;99.90;;;;;;4959246;28;20456;-87
2023/10/28 01:37:18;;;;;;;5.00;3.97;;;12.70;99.90;;;;;;4961775;28;20532;-87
2023/10/28 01:40:19;;;;;;;4.40;2.83;;;12.70;99.90;;;;;;4956103;28;20452;-87
2023/10/28 01:46:36;;;;;;;3.00;2.10;;;12.60;99.90;;;;;;4967897;28;20484;-86
2023/10/28 01:49:40;;;;;;;6.63;2.80;;;12.60;99.90;;;;;;4959418;28;20997;-87
2023/10/28 01:52:52;;;;;;;;;;;;;;;;;;;;;
2023/10/28 01:56:02;;;;;;;4.10;3.10;;;12.50;99.90;;;;;;5043270;28;20790;-86
2023/10/28 01:59:07;;;;;;;2.50;2.10;;;12.30;99.90;;;;;;4958959;28;20457;-87
2023/10/28 02:02:10;;;;;;;4.60;2.30;;;12.50;99.90;;;;;;5025314;28;20552;-87
2023/10/28 02:05:47;;;;;;;4.87;2.50;;;12.60;99.90;;;;;;5029731;28;20433;-87
2023/10/28 02:08:46;;;;;;;2.43;2.23;;;12.60;99.90;;;;;;5034482;28;21003;-87
2023/10/28 02:11:32;;;;;;;3.20;2.30;;;12.80;99.90;;;;;;5023409;28;20577;-87
2023/10/28 02:14:32;;;;;;;3.40;1.93;;;12.80;99.90;;;;;;5024261;28;20953;-86
2023/10/28 02:17:20;;;;;;;4.73;2.30;;;12.80;99.90;;;;;;5032907;28;20506;-87
2023/10/28 02:20:10;;;;;;;6.47;2.57;;;13.00;99.90;;;;;;5017621;28;20452;-87
2023/10/28 02:23:21;;;;;;;4.20;1.80;;;12.90;99.90;;;;;;5005551;28;20501;-86
2023/10/28 02:26:27;;;;;;;2.70;2.10;;;13.00;99.90;;;;;;5035306;28;20503;-89
2023/10/28 02:29:26;;;;;;;3.33;2.33;;;13.10;99.90;;;;;;5034865;28;20454;-86
2023/10/28 02:32:31;;;;;;;2.57;2.00;;;13.10;99.90;;;;;;5022632;28;20528;-87
2023/10/28 02:35:42;;;;;;;6.83;2.60;;;13.10;99.90;;;;;;5034145;28;20448;-88
2023/10/28 02:38:29;;;;;;;2.70;1.80;;;13.10;99.90;;;;;;5028360;28;20500;-88
2023/10/28 02:41:29;;;;;;;2.03;1.90;;;13.10;99.90;;;;;;5028040;28;20453;-86
2023/10/28 02:44:30;;;;;;;2.17;1.50;;;13.10;99.90;;;;;;5025261;28;20444;-88
2023/10/28 02:47:15;;;;;;;3.83;2.40;;;12.90;99.90;;;;;;5020535;28;20561;-89
2023/10/28 02:50:30;;;;;;;3.20;2.10;;;13.00;99.90;;;;;;4940581;29;20448;-87
2023/10/28 02:53:33;;;;;;;2.90;1.80;;;13.00;99.90;;;;;;4938984;29;20469;-87
2023/10/28 02:56:28;;;;;;;2.00;1.80;;;12.90;99.90;;;;;;4962559;28;20456;-86
2023/10/28 02:59:24;;;;;;;3.30;1.70;;;12.90;99.90;;;;;;4959253;28;20457;-85
2023/10/28 03:04:58;;;;;;;2.20;1.33;;;13.00;99.90;;;;;;4920681;29;20936;-86
2023/10/28 03:08:03;;;;;;;1.67;1.57;;;13.00;99.90;;;;;;4941609;29;20996;-85
2023/10/28 03:10:53;;;;;;;3.00;1.40;;;13.00;99.90;;;;;;4942144;28;21148;-86
2023/10/28 03:17:52;;;;;;;1.83;1.10;;;12.80;99.90;;;;;;4959069;28;20455;-87
2023/10/28 03:21:08;;;;;;;1.93;0.90;;;12.80;99.90;;;;;;4968398;28;20507;-86
2023/10/28 03:24:07;;;;;;;1.00;0.90;;;12.70;99.90;;;;;;5034813;28;20512;-87
2023/10/28 03:27:32;;;;;;;1.50;1.40;;;12.80;99.90;;;;;;5022985;28;20531;-86
2023/10/28 03:30:28;;;;;;;1.47;1.10;;;12.80;99.90;;;;;;4983552;28;20778;-86
2023/10/28 03:33:33;;;;;;;0.80;0.80;;;12.90;99.90;;;;;;5012547;28;20520;-86
2023/10/28 03:36:48;;;;;;;2.63;1.00;;;12.90;99.90;;;;;;5035945;28;20461;-86
2023/10/28 03:43:34;;;;;;;1.50;1.20;;;12.80;99.90;;;;;;5009293;28;20478;-87
2023/10/28 03:46:32;;;;;;;1.80;1.30;;;12.90;99.90;;;;;;5022565;28;20485;-86
2023/10/28 03:49:30;;;;;;;1.90;0.90;;;12.90;99.90;;;;;;4963020;28;21020;-87
2023/10/28 03:56:29;;;;;;;3.00;1.40;;;12.80;99.90;;;;;;4974081;28;20446;-86
2023/10/28 03:59:33;;;;;;;0.87;0.87;;;12.70;99.90;;;;;;4938787;29;20477;-86
2023/10/28 04:07:04;;;;;;;0.93;0.83;;;12.60;99.90;;;;;;4961193;28;20534;-86
2023/10/28 04:10:13;;;;;;;1.40;0.83;;;12.50;99.90;;;;;;4997721;28;20470;-86
2023/10/28 04:13:42;;;;;;;4.30;0.90;;;12.40;99.90;;;;;;4998870;28;20439;-88
2023/10/28 04:17:16;;;;;;;1.53;0.97;;;12.40;99.90;;;;;;5008467;28;20450;-85
2023/10/28 04:20:33;;;;;;;4.20;0.83;;;12.30;99.90;;;;;;4978985;28;20526;-88
2023/10/28 04:24:12;;;;;;;0.70;0.70;;;12.30;99.90;;;;;;4993076;28;20471;-88
2023/10/28 04:28:16;;;;;;;;;;;;;;;;;;;;;
2023/10/28 04:31:15;;;;;;;0.70;0.70;;;12.20;99.90;;;;;;4945081;29;20433;-89
2023/10/28 04:34:24;;;;;;;1.17;0.70;;;12.10;99.90;;;;;;4942407;29;20465;-87
2023/10/28 04:37:24;;;;;;;0.73;0.73;;;11.90;99.90;;;;;;4948700;29;20547;-87
2023/10/28 04:40:37;;;;;;;1.60;1.27;;;12.40;99.90;;;;;;4949232;29;20438;-87
2023/10/28 04:44:01;;;;;;;0.90;0.90;;;12.50;99.90;;;;;;4956647;29;20504;-87
2023/10/28 04:47:15;;;;;;;;;;;;;;;;;;;;;
2023/10/28 04:50:35;;;;;;;;;;;;;;;;;;;;;
2023/10/28 04:53:24;;;;;;;3.03;1.30;;;12.40;99.90;;;;;;5045447;28;20449;-87
2023/10/28 04:56:57;;;;;;;1.27;1.07;;;12.40;99.90;;;;;;5031335;28;20449;-87
2023/10/28 05:03:29;;;;;;;1.90;0.97;;;12.40;99.90;;;;;;5045862;28;20449;-88
2023/10/28 05:06:53;;;;;;;0.90;0.90;;;12.40;99.90;;;;;;4943272;28;20464;-89
2023/10/28 05:09:56;;;;;;;;;;;;;;;;;;;;;
2023/10/28 05:12:53;;;;;;;;;;;;;;;;;;;;;
2023/10/28 05:15:48;;;;;;;1.63;1.10;;;12.30;99.90;;;;;;4842977;29;20447;-89
2023/10/28 05:22:14;;;;;;;0.73;0.73;;;12.30;99.90;;;;;;4836655;29;20527;-87
2023/10/28 05:25:03;;;;;;;1.33;0.63;;;12.30;99.90;;;;;;4832858;29;20466;-88
2023/10/28 05:28:46;;;;;;;0.80;0.80;;;12.30;99.90;;;;;;4837675;29;20546;-90
2023/10/28 05:35:30;;;;;;;1.60;0.60;;;12.30;99.90;;;;;;4834407;29;20457;-89
2023/10/28 05:42:42;;;;;;;0.93;0.90;;;12.20;99.90;;;;;;4899334;28;20458;-89
2023/10/28 05:45:35;;;;;;;1.70;1.10;;;12.20;99.90;;;;;;4983881;28;20492;-90
2023/10/28 05:48:38;;;;;;;0.93;0.80;;;12.10;99.90;;;;;;4962394;28;20476;-88
2023/10/28 05:51:54;;;;;;;2.10;0.93;;;12.10;99.90;;;;;;4968137;28;20447;-88
2023/10/28 05:55:02;;;;;;;1.50;0.70;;;12.10;99.90;;;;;;5061707;28;20462;-86
2023/10/28 05:58:08;;;;;;;2.57;0.77;;;12.10;99.90;;;;;;5047153;28;20448;-87
2023/10/28 06:01:04;;;;;;;1.00;0.80;;;12.10;99.90;;;;;;5063587;28;20452;-86
2023/10/28 06:04:21;;;;;;;0.97;0.97;;;12.10;99.90;;;;;;4979016;28;20439;-86
2023/10/28 06:07:16;;;;;;;21.03;14.07;;;12.10;99.90;;;;;;4984331;28;20479;-87
2023/10/28 06:10:18;;;;;;;2.63;1.00;;;12.20;99.90;;;;;;4989296;28;20463;-88
2023/10/28 06:13:58;;;;;;;1.53;0.80;;;12.10;99.90;;;;;;4996135;28;20471;-87
2023/10/28 06:17:10;;;;;;;1.10;0.80;;;12.20;99.90;;;;;;4982768;28;20458;-88
2023/10/28 06:23:40;;;;;;;1.80;0.80;;;12.30;99.90;;;;;;4898701;29;20459;-89
2023/10/28 06:30:06;;;;;;;2.17;0.90;;;12.30;99.90;;;;;;4923821;29;20501;-88
2023/10/28 06:33:24;;;;;;;2.80;0.90;;;12.30;99.90;;;;;;4918606;29;20465;-88
2023/10/28 06:36:34;;;;;;;0.77;0.77;;;12.20;99.90;;;;;;4929951;29;20453;-87
2023/10/28 06:39:09;;;;;;;1.17;1.10;;;12.20;99.90;;;;;;4924551;29;20483;-88
2023/10/28 06:42:12;;;;;;;1.27;0.90;;;12.20;99.90;;;;;;4933789;29;21111;-89
2023/10/28 06:45:01;;;;;;;1.73;1.40;;;12.10;99.90;;;;;;4947871;29;20579;-87
2023/10/28 06:47:57;;;;;;;2.27;1.33;;;12.20;99.90;;;;;;4930663;29;20556;-86
2023/10/28 06:54:51;;;;;;;1.47;1.37;;;12.20;99.90;;;;;;5039830;28;20444;-87
2023/10/28 06:58:10;;;;;;;3.13;1.17;;;12.30;99.90;;;;;;5030386;28;20449;-87
2023/10/28 07:02:23;;;;;;;1.53;1.10;;;12.30;99.90;;;;;;4986798;28;20441;-87
2023/10/28 07:05:45;;;;;;;4.40;3.07;;;12.30;99.90;;;;;;5044734;28;20447;-88
2023/10/28 07:09:20;;;;;;;;;;;;;;;;;;;;;
2023/10/28 07:16:06;;;;;;;1.33;1.20;;;12.60;99.90;;;;;;5003205;28;20459;-88
2023/10/28 07:18:59;;;;;;;1.20;0.80;;;12.60;99.90;;;;;;5003073;28;20530;-89
2023/10/28 07:21:59;;;;;;;1.10;1.10;;;12.60;99.90;;;;;;5018558;28;20551;-88
2023/10/28 07:25:21;;;;;;;1.33;1.00;;;12.60;99.90;;;;;;5040654;28;20492;-87
2023/10/28 07:32:10;;;;;;;;;;;;;;;;;;;;;
2023/10/28 07:35:30;;;;;;;0.67;0.67;;;12.50;99.90;;;;;;4986723;28;20428;-87
2023/10/28 07:42:36;;;;;;;2.00;1.00;;;12.30;99.90;;;;;;4893304;29;20463;-88
2023/10/28 07:45:28;;;;;;;1.57;1.10;;;12.30;99.90;;;;;;4965484;28;20455;-89
2023/10/28 07:48:28;;;;;;;1.20;1.10;;;12.50;99.90;;;;;;4959263;28;20540;-87
2023/10/28 07:58:50;;;;;;;0.80;0.80;;;12.60;99.90;;;;;;4997172;28;20454;-87
2023/10/28 08:02:02;;;;;;;2.20;1.00;;;12.30;99.90;;;;;;4982245;28;20452;-85
2023/10/28 08:05:29;;;;;;;1.07;0.70;;;12.40;99.90;;;;;;5018338;28;20477;-86
2023/10/28 08:09:07;;;;;;;;;;;;;;;;;;;;;
2023/10/28 08:12:44;;;;;;;;;;;;;;;;;;;;;
2023/10/28 08:34:20;;;;;;;1.37;0.90;;;12.80;99.90;;;;;;5076084;28;20960;-88
2023/10/28 08:44:52;;;;;;;2.50;1.10;;;12.80;99.90;;;;;;4996473;28;21022;-89
2023/10/28 08:48:12;;;;;;;1.10;1.00;;;12.80;99.90;;;;;;4979279;28;21113;-86
2023/10/28 08:51:58;;;;;;;1.07;1.07;;;13.00;99.90;;;;;;4985365;28;20503;-86
2023/10/28 08:55:27;;;;;;;1.50;1.00;;;12.80;99.90;;;;;;4930781;29;20514;-86
2023/10/28 08:58:50;;;;;;;;;;;;;;;;;;;;;
2023/10/28 09:07:48;;;;;;;2.07;1.23;;;13.10;99.90;;;;;;5071173;28;20483;-86
2023/10/28 09:11:12;;;;;;;1.97;1.40;;;13.10;99.90;;;;;;5066082;28;20861;-85
2023/10/28 09:14:03;;;;;;;1.10;1.00;;;13.40;99.90;;;;;;4977009;28;20447;-86
2023/10/28 09:17:13;;;;;;;2.47;1.30;;;13.40;99.90;;;;;;5006019;28;20443;-84
2023/10/28 09:34:48;;;;;;;2.30;1.43;;;13.60;99.90;;;;;;5111264;22;20486;-85
2023/10/28 09:38:47;;;;;;;;;;;;;;;;;;;;;
2023/10/28 09:51:22;;;;;;;3.40;1.70;;;14.10;99.90;;;;;;4952801;29;20471;-85
2023/10/28 09:58:52;;;;;;;2.37;1.20;;;14.30;99.90;;;;;;4905475;29;20479;-86
2023/10/28 10:06:18;;;;;;;2.53;1.40;;;14.60;99.90;;;;;;4857572;29;22320;-86
2023/10/28 10:15:18;;;;;;;;;;;;;;;;;;;;;
2023/10/28 10:22:41;;;;;;;2.40;1.20;;;15.30;99.90;;;;;;4975430;28;20467;-87
2023/10/28 10:26:34;;;;;;;1.73;1.10;;;15.30;99.90;;;;;;4942565;28;20438;-86
2023/10/28 10:29:54;;;;;;;;;;;;;;;;;;;;;
2023/10/28 10:33:15;;;;;;;2.07;1.00;;;15.60;99.90;;;;;;4957508;28;20455;-86
2023/10/28 10:36:35;;;;;;;1.40;1.00;;;15.70;99.90;;;;;;5112164;22;20495;-87
2023/10/28 10:40:13;;;;;;;6.73;5.13;;;15.80;99.90;;;;;;5020720;28;20523;-87
2023/10/28 10:42:43;;;;;;;4.97;1.80;;;15.80;99.90;;;;;;5066067;28;20482;-88
2023/10/28 10:52:54;;;;;;;3.50;1.30;;;15.80;99.90;;;;;;4886605;28;20513;-88
2023/10/28 10:56:05;;;;;;;3.23;1.70;;;15.80;99.90;;;;;;4979592;28;20456;-88
2023/10/28 10:59:58;;;;;;;;;;;;;;;;;;;;;
2023/10/28 11:28:32;;;;;;;3.73;1.40;;;16.10;97.60;;;;;;4977559;28;20533;-86
2023/10/28 11:34:58;;;;;;;4.93;1.33;;;16.10;97.50;;;;;;5052126;28;20440;-87
2023/10/28 11:41:42;;;;;;;;;;;;;;;;;;;;;
2023/10/28 11:44:36;;;;;;;5.33;1.30;;;16.10;96.80;;;;;;5005992;28;21360;-86
2023/10/28 11:47:54;;;;;;;4.07;1.30;;;16.30;96.80;;;;;;4991579;28;20569;-87
2023/10/28 11:54:35;;;;;;;;;;;;;;;;;;;;;
2023/10/28 11:57:43;;;;;;;2.73;1.80;;;16.20;96.50;;;;;;4911426;29;20454;-85
2023/10/28 12:04:41;;;;;;;4.83;1.80;;;15.90;97.50;;;;;;4909558;29;20426;-87
2023/10/28 12:08:11;;;;;;;5.60;1.47;;;16.10;97.50;;;;;;4916543;28;20485;-88
2023/10/28 12:19:14;;;;;;;1.70;1.07;;;16.30;96.80;;;;;;4917732;28;20439;-86
2023/10/28 12:22:29;;;;;;;;;;;;;;;;;;;;;
2023/10/28 12:25:22;;;;;;;2.80;1.13;;;15.70;97.10;;;;;;4975252;28;20553;-86
2023/10/28 12:29:17;;;;;;;2.00;0.90;;;15.70;97.30;;;;;;4954038;28;20476;-85
2023/10/28 12:32:15;;;;;;;2.83;1.23;;;16.40;96.10;;;;;;4894699;29;20503;-86
2023/10/28 12:35:19;;;;;;;2.00;0.73;;;16.40;95.70;;;;;;4922971;28;21079;-87
2023/10/28 12:38:20;;;;;;;;;;;;;;;;;;;;;
2023/10/28 12:41:52;;;;;;;2.43;0.93;;;16.50;94.60;;;;;;4902375;29;20438;-85
2023/10/28 12:44:58;;;;;;;3.20;1.20;;;16.50;94.80;;;;;;4903442;29;20455;-87
2023/10/28 12:51:22;;;;;;;1.90;1.30;;;16.20;95.70;;;;;;4916291;29;20411;-85
2023/10/28 12:54:24;;;;;;;2.20;0.60;;;16.50;95.00;;;;;;4916109;29;21044;-85
2023/10/28 12:58:07;;;;;;;;;;;;;;;;;;;;;
2023/10/28 13:01:28;;;;;;;4.90;1.03;;;16.30;94.40;;;;;;4933308;29;20889;-87
2023/10/28 13:05:27;;;;;;;2.97;0.90;;;16.10;95.00;;;;;;4934411;29;20432;-87
2023/10/28 13:09:17;;;;;;;1.60;0.70;;;16.40;94.50;;;;;;4894793;29;20564;-86
2023/10/28 13:12:16;;;;;;;1.10;0.53;;;16.40;94.40;;;;;;4965097;22;20552;-87
2023/10/28 13:19:40;;;;;;;0.70;0.60;;;16.60;93.10;;;;;;5041287;28;20454;-86
2023/10/28 13:22:36;;;;;;;3.77;0.67;;;16.50;93.30;;;;;;5062152;28;20457;-86
2023/10/28 13:25:45;;;;;;;0.80;0.70;;;16.60;93.60;;;;;;5059303;28;20442;-84
2023/10/28 13:28:38;;;;;;;1.73;0.63;;;16.60;93.40;;;;;;5064457;28;20574;-86
2023/10/28 13:32:34;;;;;;;;;;;;;;;;;;;;;
2023/10/28 13:35:46;;;;;;;1.07;0.50;;;16.50;93.60;;;;;;5064450;28;20563;-86
2023/10/28 13:39:18;;;;;;;1.57;0.60;;;16.40;94.30;;;;;;5052955;28;20506;-87
2023/10/28 13:42:26;;;;;;;1.80;0.70;;;16.40;94.20;;;;;;5053611;28;20545;-85
2023/10/28 13:45:41;;;;;;;0.93;0.70;;;16.30;94.50;;;;;;5067495;28;20465;-86
2023/10/28 13:49:07;;;;;;;0.60;0.60;;;16.30;94.50;;;;;;5058217;28;21002;-87
2023/10/28 13:52:45;;;;;;;0.70;0.70;;;16.10;94.80;;;;;;5050368;28;20546;-86
2023/10/28 14:03:02;;;;;;;0.90;0.60;;;16.00;95.60;;;;;;5040683;28;20555;-89
2023/10/28 14:06:22;;;;;;;;;;;;;;;;;;;;;
2023/10/28 14:09:24;;;;;;;1.10;0.70;;;15.70;98.50;;;;;;5072438;28;20475;-88
2023/10/28 14:12:58;;;;;;;0.97;0.80;;;15.70;99.20;;;;;;5038619;28;20467;-88
2023/10/28 14:16:05;;;;;;;0.77;0.60;;;16.00;98.20;;;;;;4946743;28;20524;-87
2023/10/28 14:19:15;;;;;;;0.93;0.80;;;16.10;97.60;;;;;;4950890;28;20484;-86
2023/10/28 14:22:55;;;;;;;0.90;0.60;;;16.30;97.60;;;;;;4903684;29;20490;-87
2023/10/28 14:26:08;;;;;;;;;;;;;;;;;;;;;
2023/10/28 14:29:42;;;;;;;2.30;1.33;;;16.10;97.40;;;;;;4962570;28;21365;-85
2023/10/28 14:40:24;;;;;;;1.20;0.77;;;15.60;99.20;;;;;;4953643;28;20446;-85
2023/10/28 14:43:43;;;;;;;1.13;0.77;;;15.50;99.90;;;;;;4953770;28;20484;-86
2023/10/28 14:50:52;;;;;;;1.20;0.97;;;15.40;99.90;;;;;;4872345;29;20475;-88
2023/10/28 14:54:22;;;;;;;0.80;0.70;;;15.30;99.90;;;;;;4891854;29;20474;-88
2023/10/28 14:57:27;;;;;;;1.23;0.80;;;15.40;99.90;;;;;;4861576;29;20520;-87
2023/10/28 15:05:17;;;;;;;1.03;0.83;;;15.40;99.90;;;;;;4937123;28;20473;-86
2023/10/28 15:08:42;;;;;;;1.33;0.60;;;15.20;99.90;;;;;;4921089;29;20485;-86
2023/10/28 15:12:03;;;;;;;2.30;1.07;;;15.40;99.90;;;;;;4892590;29;21297;-87
2023/10/28 15:15:19;;;;;;;0.93;0.83;;;15.50;99.90;;;;;;4804526;29;20680;-87
2023/10/28 15:22:19;;;;;;;0.77;0.77;;;15.30;99.90;;;;;;4817593;29;20462;-87
2023/10/28 15:36:30;;;;;;;1.07;0.80;;;15.40;99.90;;;;;;4914965;29;20886;-85
2023/10/28 15:43:13;;;;;;;0.90;0.70;;;15.50;99.90;;;;;;4909161;29;20498;-87
2023/10/28 15:47:06;;;;;;;;;;;;;;;;;;;;;
2023/10/28 15:53:35;;;;;;;1.77;1.10;;;15.30;99.90;;;;;;4923911;29;20781;-87
2023/10/28 15:57:07;;;;;;;1.93;1.20;;;15.40;99.90;;;;;;4909400;29;20498;-87
2023/10/28 16:00:36;;;;;;;;;;;;;;;;;;;;;
2023/10/28 16:15:37;;;;;;;1.57;1.47;;;15.10;99.90;;;;;;5045771;28;20421;-86
2023/10/28 16:22:37;;;;;;;2.10;0.80;;;14.90;99.90;;;;;;5002488;28;20483;-87
2023/10/28 16:26:36;;;;;;;;;;;;;;;;;;;;;
2023/10/28 16:45:16;;;;;;;;;;;;;;;;;;;;;
2023/10/28 16:48:25;;;;;;;;;;;;;;;;;;;;;
2023/10/28 16:51:20;;;;;;;1.67;0.80;;;14.70;99.90;;;;;;4959725;28;20457;-86
2023/10/28 16:58:43;;;;;;;1.63;1.00;;;15.20;99.90;;;;;;5012979;28;20465;-90
2023/10/28 17:16:21;;;;;;;1.57;0.80;;;15.20;99.90;;;;;;4917286;28;20445;-86
2023/10/28 17:27:38;;;;;;;1.70;0.90;;;15.10;99.90;;;;;;4853446;29;20537;-84
2023/10/28 17:31:08;;;;;;;1.77;0.87;;;15.00;99.90;;;;;;4896969;29;20557;-87
2023/10/28 17:37:29;;;;;;;1.23;0.70;;;15.00;99.90;;;;;;4940587;28;20507;-84
2023/10/28 17:40:30;;;;;;;1.77;1.00;;;15.00;99.90;;;;;;4934629;28;20535;-85
2023/10/28 17:43:54;;;;;;;0.70;0.70;;;14.90;99.90;;;;;;5077208;22;20468;-84
2023/10/28 17:46:58;;;;;;;0.60;0.60;;;14.90;99.90;;;;;;5038456;28;21004;-87
2023/10/28 17:50:30;;;;;;;0.70;0.70;;;14.90;99.90;;;;;;5056228;28;20471;-84
2023/10/28 17:54:14;;;;;;;0.73;0.73;;;15.10;99.90;;;;;;4982846;28;22307;-87
2023/10/28 18:01:00;;;;;;;1.60;1.00;;;14.90;99.90;;;;;;5007594;28;20425;-87
2023/10/28 18:04:13;;;;;;;3.67;1.63;;;14.80;99.90;;;;;;5005974;28;20560;-85
2023/10/28 18:07:19;;;;;;;7.90;3.50;;;14.90;99.90;;;;;;5006362;28;20540;-85
2023/10/28 18:10:31;;;;;;;10.53;4.33;;;14.80;99.90;;;;;;5011657;28;20477;-88
2023/10/28 18:17:09;;;;;;;5.83;2.57;;;14.70;99.90;;;;;;5087645;28;20509;-86
2023/10/28 18:20:45;;;;;;;;;;;;;;;;;;;;;
2023/10/28 18:23:34;;;;;;;2.50;1.80;;;14.80;99.90;;;;;;4918709;29;20606;-86
2023/10/28 18:26:48;;;;;;;2.27;1.70;;;14.90;99.90;;;;;;4896047;29;20455;-87
2023/10/28 18:29:56;;;;;;;1.73;1.20;;;14.80;99.90;;;;;;4895333;29;20486;-85
2023/10/28 18:32:59;;;;;;;2.43;1.40;;;14.80;99.90;;;;;;4873681;29;20483;-86
2023/10/28 18:40:15;;;;;;;1.70;1.37;;;14.60;99.90;;;;;;4875888;29;20524;-88
2023/10/28 18:46:30;;;;;;;2.40;2.00;;;14.50;99.90;;;;;;4863570;29;20478;-88
2023/10/28 18:49:44;;;;;;;;;;;;;;;;;;;;;
2023/10/28 18:53:20;;;;;;;1.93;1.30;;;14.60;99.90;;;;;;4870124;29;20475;-87
2023/10/28 18:56:41;;;;;;;2.37;1.80;;;14.60;99.90;;;;;;4861009;29;20473;-88
2023/10/28 19:03:57;;;;;;;1.20;1.10;;;14.40;99.90;;;;;;4806716;29;20483;-88
2023/10/28 19:10:53;;;;;;;2.33;1.57;;;14.50;99.90;;;;;;4907580;29;20977;-85
2023/10/28 19:14:20;;;;;;;2.30;1.57;;;14.40;99.90;;;;;;4891144;29;20485;-90
2023/10/28 19:17:53;;;;;;;1.60;1.50;;;14.30;99.90;;;;;;4882790;29;20574;-87
2023/10/28 19:21:12;;;;;;;2.53;1.50;;;14.20;99.90;;;;;;4913603;29;20539;-87
2023/10/28 19:37:09;;;;;;;;;;;;;;;;;;;;;
2023/10/28 19:39:53;;;;;;;1.63;1.30;;;14.10;99.90;;;;;;5058124;28;20489;-86
2023/10/28 19:46:53;;;;;;;1.90;1.77;;;14.10;99.90;;;;;;5046200;28;20463;-86
2023/10/28 19:50:31;;;;;;;1.97;1.53;;;14.00;99.90;;;;;;5042004;28;20685;-87
2023/10/28 19:54:08;;;;;;;2.37;1.50;;;13.90;99.90;;;;;;4992429;28;20474;-86
2023/10/28 19:57:47;;;;;;;1.67;1.57;;;13.80;99.90;;;;;;5054557;28;20502;-86
2023/10/28 20:04:48;;;;;;;3.17;1.70;;;13.80;99.90;;;;;;5056439;28;21216;-88
2023/10/28 20:31:24;;;;;;;9.33;2.47;;;13.70;99.90;;;;;;4959229;28;20487;-86
2023/10/28 22:24:45;;;;;;;4.47;3.87;;;14.30;99.90;;;;;;5079077;28;20476;-86
2023/10/28 22:27:12;;;;;;;5.77;2.40;;;14.20;99.90;;;;;;5085061;28;20832;-86
2023/10/28 22:30:15;;;;;;;3.47;1.90;;;14.20;99.90;;;;;;5068902;28;20483;-87
2023/10/28 22:32:51;;;;;;;3.53;1.83;;;14.30;99.90;;;;;;5059769;28;20527;-87
2023/10/28 22:35:21;;;;;;;2.70;1.90;;;14.40;99.90;;;;;;5080509;28;20454;-88
2023/10/28 22:38:06;;;;;;;2.60;2.00;;;14.40;99.90;;;;;;5058671;28;20446;-86
2023/10/28 22:40:47;;;;;;;3.60;1.63;;;14.50;99.90;;;;;;4984388;28;20553;-88
2023/10/28 22:43:14;;;;;;;2.10;1.53;;;14.40;99.90;;;;;;5030938;28;20462;-88
2023/10/28 22:45:42;;;;;;;1.90;1.80;;;14.30;99.90;;;;;;5087457;28;21302;-88
2023/10/28 22:48:18;;;;;;;3.77;1.80;;;14.50;99.90;;;;;;5068177;28;20443;-86
2023/10/28 22:50:45;;;;;;;2.80;1.80;;;14.50;99.90;;;;;;5067364;28;20928;-89
2023/10/28 22:57:33;;;;;;;1.03;1.03;;;14.40;99.90;;;;;;5053955;28;20455;-87
2023/10/28 23:00:30;;;;;;;2.90;1.90;;;14.60;99.90;;;;;;5034170;28;20424;-87
2023/10/28 23:03:14;;;;;;;5.30;1.60;;;14.50;99.90;;;;;;5021947;28;20547;-85
2023/10/28 23:06:51;;;;;;;;;;;;;;;;;;;;;
2023/10/28 23:10:22;;;;;;;1.97;1.60;;;14.50;99.90;;;;;;4916440;29;20496;-87
2023/10/28 23:13:28;;;;;;;1.77;1.40;;;14.70;99.90;;;;;;4945082;28;20522;-86
2023/10/28 23:16:17;;;;;;;2.70;1.30;;;14.80;99.90;;;;;;4985262;28;21022;-87
2023/10/28 23:19:20;;;;;;;3.13;1.40;;;14.60;99.90;;;;;;4983254;28;20441;-86
2023/10/28 23:22:15;;;;;;;1.60;1.37;;;14.70;99.90;;;;;;4984405;28;20524;-86
2023/10/28 23:25:04;;;;;;;2.60;1.60;;;14.70;99.90;;;;;;4981744;28;20505;-87
2023/10/28 23:28:32;;;;;;;1.90;1.60;;;14.60;99.90;;;;;;4996780;28;20495;-88
2023/10/28 23:31:34;;;;;;;1.60;1.47;;;14.70;99.90;;;;;;5064625;28;20426;-89
2023/10/28 23:34:24;;;;;;;1.23;1.00;;;14.70;99.90;;;;;;5064131;28;20459;-87
2023/10/28 23:37:32;;;;;;;1.23;1.07;;;14.60;99.90;;;;;;5054749;28;20462;-87
2023/10/28 23:40:35;;;;;;;1.53;1.43;;;14.80;99.90;;;;;;5065723;28;20745;-88
2023/10/28 23:43:35;;;;;;;2.57;1.40;;;14.70;99.90;;;;;;5077399;28;20471;-87
2023/10/28 23:50:35;;;;;;;1.33;1.20;;;14.70;99.90;;;;;;5003078;28;20475;-90
2023/10/28 23:53:59;;;;;;;1.60;1.50;;;14.80;99.90;;;;;;4978828;28;20481;-86
2023/10/28 23:56:43;;;;;;;1.50;1.20;;;14.80;99.90;;;;;;5009357;28;20447;-89
